Time;durP1;ratioP1;P1;durP2;ratioP2;P2;SDS_P1;SDS_P2;PMS_P1;PMS_P2;Temp;Humidity;BMP_temperature;BMP_pressure;BME280_temperature;BME280_humidity;BME280_pressure;Samples;Min_cycle;Max_cycle;Signal;HPM_P1;HPM_P2
2023/08/20 00:01:22;;;;;;;13.23;2.72;;;17.80;99.90;;;;;;5030227;28;20045;-62
2023/08/20 00:03:50;;;;;;;15.57;3.28;;;17.80;99.90;;;;;;5003057;28;20138;-62
2023/08/20 00:06:18;;;;;;;19.55;3.05;;;17.70;99.90;;;;;;5012562;28;20095;-62
2023/08/20 00:08:45;;;;;;;15.82;3.20;;;17.70;99.90;;;;;;5030697;28;20041;-62
2023/08/20 00:11:12;;;;;;;13.27;3.08;;;17.70;99.90;;;;;;5030096;28;20553;-62
2023/08/20 00:13:39;;;;;;;15.45;2.83;;;17.80;99.90;;;;;;5009742;28;20045;-62
2023/08/20 00:16:07;;;;;;;15.85;3.10;;;17.90;99.90;;;;;;5027670;28;20527;-63
2023/08/20 00:18:34;;;;;;;15.65;4.00;;;17.80;99.90;;;;;;5030512;28;20107;-64
2023/08/20 00:21:05;;;;;;;20.13;3.70;;;17.80;99.90;;;;;;5030006;28;20045;-62
2023/08/20 00:23:32;;;;;;;17.17;3.70;;;17.80;99.90;;;;;;5030095;28;20084;-63
2023/08/20 00:25:59;;;;;;;21.65;4.45;;;17.90;99.90;;;;;;5012592;28;20042;-62
2023/08/20 00:28:26;;;;;;;18.02;3.17;;;17.90;99.90;;;;;;5020921;28;20076;-62
2023/08/20 00:30:53;;;;;;;12.60;3.08;;;17.90;99.90;;;;;;5030056;28;20683;-62
2023/08/20 00:33:20;;;;;;;13.85;3.92;;;17.90;99.90;;;;;;5028245;28;20439;-62
2023/08/20 00:35:46;;;;;;;10.68;2.70;;;17.80;99.90;;;;;;5029950;28;20068;-62
2023/08/20 00:38:13;;;;;;;10.23;3.15;;;17.80;99.90;;;;;;5027604;28;20103;-62
2023/08/20 00:40:40;;;;;;;12.40;2.55;;;17.80;99.90;;;;;;5029872;28;20065;-62
2023/08/20 00:43:07;;;;;;;13.05;2.85;;;17.80;99.90;;;;;;5029907;28;20045;-62
2023/08/20 00:45:34;;;;;;;13.95;3.78;;;17.80;99.90;;;;;;5029981;28;20174;-62
2023/08/20 00:48:01;;;;;;;14.15;2.70;;;17.80;99.90;;;;;;5029442;28;20045;-61
2023/08/20 00:50:27;;;;;;;24.45;4.55;;;17.80;99.90;;;;;;5029823;28;20053;-61
2023/08/20 00:52:54;;;;;;;15.20;3.38;;;17.70;99.90;;;;;;5011786;28;20046;-62
2023/08/20 00:55:21;;;;;;;8.85;2.58;;;17.70;99.90;;;;;;5030082;28;20052;-62
2023/08/20 00:57:48;;;;;;;11.45;2.97;;;17.80;99.90;;;;;;5029309;28;20049;-62
2023/08/20 01:00:15;;;;;;;16.42;3.00;;;17.80;99.90;;;;;;5029751;28;20053;-61
2023/08/20 01:02:42;;;;;;;11.93;2.58;;;17.60;99.90;;;;;;5026803;28;20042;-64
2023/08/20 01:05:12;;;;;;;11.45;3.13;;;17.60;99.90;;;;;;5029299;28;20053;-62
2023/08/20 01:07:47;;;;;;;12.70;2.53;;;17.60;99.90;;;;;;5029564;28;20052;-61
2023/08/20 01:10:43;;;;;;;10.77;2.33;;;17.50;99.90;;;;;;5029520;28;20115;-62
2023/08/20 01:13:10;;;;;;;13.63;2.47;;;17.50;99.90;;;;;;5029190;28;20064;-62
2023/08/20 01:15:37;;;;;;;12.70;2.72;;;17.40;99.90;;;;;;4993836;28;20527;-63
2023/08/20 01:18:04;;;;;;;17.20;2.05;;;17.40;99.90;;;;;;5029308;28;20042;-62
2023/08/20 01:20:34;;;;;;;12.85;2.45;;;17.30;99.90;;;;;;5029055;28;20049;-62
2023/08/20 01:23:18;;;;;;;8.23;2.17;;;17.40;99.90;;;;;;4995518;28;20429;-62
2023/08/20 01:26:04;;;;;;;14.40;3.13;;;17.30;99.90;;;;;;5027097;28;20045;-62
2023/08/20 01:28:31;;;;;;;11.40;2.53;;;17.30;99.90;;;;;;5023166;28;20115;-63
2023/08/20 01:31:01;;;;;;;14.98;2.30;;;17.30;99.90;;;;;;5028900;28;20496;-62
2023/08/20 01:33:28;;;;;;;14.85;2.83;;;17.30;99.90;;;;;;5011726;28;20053;-61
2023/08/20 01:35:54;;;;;;;10.95;2.63;;;17.40;99.90;;;;;;5009665;28;20046;-61
2023/08/20 01:38:21;;;;;;;17.25;3.20;;;17.50;99.90;;;;;;5028317;28;20052;-61
2023/08/20 01:40:48;;;;;;;11.90;2.55;;;17.40;99.90;;;;;;5029045;28;20053;-61
2023/08/20 01:43:15;;;;;;;16.60;3.20;;;17.30;99.90;;;;;;5028845;28;20401;-62
2023/08/20 01:45:42;;;;;;;11.13;2.17;;;17.20;99.90;;;;;;5028830;28;20049;-61
2023/08/20 01:48:09;;;;;;;16.10;2.42;;;17.20;99.90;;;;;;5028968;28;20037;-62
2023/08/20 01:50:37;;;;;;;20.17;3.80;;;17.10;99.90;;;;;;5028737;28;20053;-62
2023/08/20 01:53:03;;;;;;;19.98;4.53;;;17.10;99.90;;;;;;5028480;28;20176;-61
2023/08/20 01:55:30;;;;;;;13.18;2.45;;;17.10;99.90;;;;;;5028614;28;20045;-61
2023/08/20 01:57:58;;;;;;;14.35;4.20;;;17.10;99.90;;;;;;5028860;28;20046;-61
2023/08/20 02:00:26;;;;;;;16.13;3.60;;;17.10;99.90;;;;;;5028494;28;20128;-62
2023/08/20 02:02:53;;;;;;;14.15;2.47;;;17.20;99.90;;;;;;5028950;28;20045;-61
2023/08/20 02:05:20;;;;;;;16.23;3.25;;;17.20;99.90;;;;;;5027879;28;20053;-61
2023/08/20 02:07:47;;;;;;;13.50;3.35;;;17.20;99.90;;;;;;5025941;28;20483;-62
2023/08/20 02:10:14;;;;;;;17.05;4.75;;;17.20;99.90;;;;;;5028131;28;20054;-62
2023/08/20 02:12:41;;;;;;;20.60;4.75;;;17.10;99.90;;;;;;5028192;28;20482;-61
2023/08/20 02:15:08;;;;;;;16.90;3.42;;;17.00;99.90;;;;;;5028210;28;20042;-60
2023/08/20 02:17:35;;;;;;;16.10;3.38;;;17.00;99.90;;;;;;5027968;28;20072;-60
2023/08/20 02:20:04;;;;;;;20.63;4.50;;;17.00;99.90;;;;;;5027814;28;20056;-62
2023/08/20 02:22:31;;;;;;;14.98;4.45;;;17.10;99.90;;;;;;5028248;28;20056;-60
2023/08/20 02:24:58;;;;;;;17.92;4.47;;;17.10;99.90;;;;;;5028349;28;20056;-62
2023/08/20 02:27:24;;;;;;;17.80;5.00;;;17.00;99.90;;;;;;5028492;28;20057;-63
2023/08/20 02:29:51;;;;;;;17.27;4.57;;;17.00;99.90;;;;;;5028269;28;20073;-62
2023/08/20 02:32:18;;;;;;;30.42;5.43;;;17.10;99.90;;;;;;5028100;28;20064;-62
2023/08/20 02:34:50;;;;;;;14.18;5.30;;;17.10;99.90;;;;;;5028106;28;20053;-62
2023/08/20 02:37:17;;;;;;;10.95;4.20;;;17.10;99.90;;;;;;5020166;28;20484;-61
2023/08/20 02:39:44;;;;;;;18.27;5.43;;;17.00;99.90;;;;;;5027977;28;20500;-61
2023/08/20 02:42:11;;;;;;;17.25;5.20;;;17.00;99.90;;;;;;5028025;28;20100;-61
2023/08/20 02:44:37;;;;;;;17.02;5.30;;;17.00;99.90;;;;;;5028189;28;20054;-62
2023/08/20 02:47:04;;;;;;;19.30;7.43;;;17.00;99.90;;;;;;5028216;28;20047;-62
2023/08/20 02:49:31;;;;;;;16.13;5.95;;;17.00;99.90;;;;;;5028308;28;20049;-63
2023/08/20 02:51:58;;;;;;;14.75;5.32;;;17.00;99.90;;;;;;5028076;28;20045;-62
2023/08/20 02:54:25;;;;;;;16.50;5.22;;;16.90;99.90;;;;;;5028113;28;20542;-61
2023/08/20 02:56:52;;;;;;;18.17;5.25;;;16.90;99.90;;;;;;5027807;28;20504;-62
2023/08/20 02:59:19;;;;;;;23.10;5.50;;;16.90;99.90;;;;;;5028167;28;20075;-63
2023/08/20 03:01:46;;;;;;;14.95;4.97;;;16.90;99.90;;;;;;5027862;28;20598;-61
2023/08/20 03:04:13;;;;;;;19.52;5.80;;;16.90;99.90;;;;;;5028043;28;20052;-61
2023/08/20 03:06:40;;;;;;;18.30;5.10;;;16.90;99.90;;;;;;5028139;28;20041;-62
2023/08/20 03:09:07;;;;;;;24.55;7.45;;;16.90;99.90;;;;;;5027910;28;20050;-62
2023/08/20 03:11:34;;;;;;;17.58;5.28;;;16.90;99.90;;;;;;5027902;28;20542;-62
2023/08/20 03:14:00;;;;;;;16.30;5.15;;;17.00;99.90;;;;;;5027959;28;20164;-61
2023/08/20 03:16:27;;;;;;;16.58;5.72;;;17.00;99.90;;;;;;5025408;28;20057;-62
2023/08/20 03:18:54;;;;;;;17.40;5.95;;;17.00;99.90;;;;;;5027369;28;20096;-60
2023/08/20 03:21:20;;;;;;;23.05;5.68;;;17.00;99.90;;;;;;5027758;28;20050;-60
2023/08/20 03:23:47;;;;;;;16.35;5.28;;;16.90;99.90;;;;;;5028002;28;20045;-61
2023/08/20 03:26:14;;;;;;;16.48;5.53;;;17.00;99.90;;;;;;5030480;28;20053;-61
2023/08/20 03:28:41;;;;;;;17.40;5.70;;;17.00;99.90;;;;;;5031298;28;20045;-61
2023/08/20 03:31:07;;;;;;;15.73;5.70;;;17.00;99.90;;;;;;5031552;28;20061;-60
2023/08/20 03:33:34;;;;;;;20.92;6.28;;;17.00;99.90;;;;;;5031623;28;20077;-61
2023/08/20 03:36:01;;;;;;;17.90;5.35;;;16.90;99.90;;;;;;5031587;28;20049;-61
2023/08/20 03:38:28;;;;;;;17.40;5.78;;;16.90;99.90;;;;;;5030458;28;20050;-62
2023/08/20 03:40:55;;;;;;;20.88;5.93;;;16.90;99.90;;;;;;5031685;28;20553;-61
2023/08/20 03:43:22;;;;;;;18.13;5.32;;;16.90;99.90;;;;;;5031063;28;20046;-61
2023/08/20 03:45:53;;;;;;;16.48;5.05;;;16.80;99.90;;;;;;5031698;28;20051;-61
2023/08/20 03:48:20;;;;;;;18.13;5.55;;;16.80;99.90;;;;;;5030635;28;20072;-62
2023/08/20 03:50:47;;;;;;;21.55;5.07;;;16.90;99.90;;;;;;5031056;28;20099;-62
2023/08/20 03:53:15;;;;;;;24.92;5.30;;;16.90;99.90;;;;;;5031201;28;20050;-62
2023/08/20 03:55:41;;;;;;;19.38;4.68;;;16.90;99.90;;;;;;5030840;28;20048;-62
2023/08/20 03:58:08;;;;;;;18.10;4.80;;;16.90;99.90;;;;;;5028093;28;20103;-62
2023/08/20 04:00:36;;;;;;;18.95;5.30;;;16.90;99.90;;;;;;5030739;28;20111;-61
2023/08/20 04:03:02;;;;;;;22.20;4.90;;;16.90;99.90;;;;;;5030955;28;20041;-61
2023/08/20 04:05:29;;;;;;;23.55;5.45;;;16.90;99.90;;;;;;5013021;28;20084;-61
2023/08/20 04:07:56;;;;;;;19.38;5.72;;;16.90;99.90;;;;;;5012731;28;20041;-61
2023/08/20 04:10:23;;;;;;;29.90;6.53;;;16.90;99.90;;;;;;5030623;28;20050;-61
2023/08/20 04:12:50;;;;;;;13.98;5.00;;;16.90;99.90;;;;;;5013038;28;20045;-61
2023/08/20 04:15:17;;;;;;;19.65;5.60;;;16.90;99.90;;;;;;5030676;28;20053;-61
2023/08/20 04:17:43;;;;;;;15.88;4.80;;;16.90;99.90;;;;;;5030422;28;20081;-61
2023/08/20 04:20:11;;;;;;;24.02;5.32;;;16.90;99.90;;;;;;5012579;28;20049;-61
2023/08/20 04:22:38;;;;;;;11.93;4.97;;;16.90;99.90;;;;;;5030618;28;20644;-61
2023/08/20 04:25:05;;;;;;;22.60;6.22;;;16.90;99.90;;;;;;5029901;28;20042;-61
2023/08/20 04:27:32;;;;;;;17.08;5.43;;;16.90;99.90;;;;;;5030824;28;20052;-61
2023/08/20 04:30:00;;;;;;;16.45;5.95;;;16.90;99.90;;;;;;5030160;28;20458;-62
2023/08/20 04:32:27;;;;;;;18.88;5.90;;;16.90;99.90;;;;;;5030609;28;20107;-61
2023/08/20 04:34:54;;;;;;;14.77;5.30;;;16.80;99.90;;;;;;5029602;28;20088;-62
2023/08/20 04:37:21;;;;;;;24.10;6.50;;;16.80;99.90;;;;;;5029377;28;20076;-61
2023/08/20 04:39:49;;;;;;;13.07;5.72;;;16.80;99.90;;;;;;5012170;28;20057;-61
2023/08/20 04:42:15;;;;;;;21.83;7.88;;;16.70;99.90;;;;;;5030202;28;20056;-61
2023/08/20 04:44:42;;;;;;;12.35;6.32;;;16.70;99.90;;;;;;5030232;28;20049;-61
2023/08/20 04:47:15;;;;;;;14.63;6.50;;;16.70;99.90;;;;;;5029857;28;20087;-61
2023/08/20 04:49:42;;;;;;;16.45;6.50;;;16.70;99.90;;;;;;5019065;28;20068;-61
2023/08/20 04:52:09;;;;;;;18.05;7.45;;;16.60;99.90;;;;;;5030019;28;20067;-61
2023/08/20 04:54:36;;;;;;;20.17;6.68;;;16.60;99.90;;;;;;5029753;28;20397;-61
2023/08/20 04:57:02;;;;;;;16.50;6.50;;;16.60;99.90;;;;;;5029947;28;20048;-61
2023/08/20 04:59:29;;;;;;;13.88;6.53;;;16.60;99.90;;;;;;5029392;28;20049;-61
2023/08/20 05:01:56;;;;;;;14.80;6.32;;;16.60;99.90;;;;;;5029963;28;20045;-61
2023/08/20 05:04:23;;;;;;;14.98;6.85;;;16.60;99.90;;;;;;5029299;28;20049;-61
2023/08/20 05:06:50;;;;;;;15.27;6.72;;;16.60;99.90;;;;;;5029208;28;20049;-61
2023/08/20 05:09:17;;;;;;;14.20;6.85;;;16.60;99.90;;;;;;5029808;28;20076;-62
2023/08/20 05:11:43;;;;;;;17.20;6.15;;;16.60;99.90;;;;;;5029291;28;20095;-62
2023/08/20 05:14:10;;;;;;;17.63;6.55;;;16.60;99.90;;;;;;5029890;28;20076;-63
2023/08/20 05:16:37;;;;;;;18.02;7.00;;;16.60;99.90;;;;;;5029208;28;20123;-62
2023/08/20 05:19:04;;;;;;;18.25;6.43;;;16.60;99.90;;;;;;5029232;28;20047;-62
2023/08/20 05:21:31;;;;;;;15.50;5.15;;;16.60;99.90;;;;;;5029129;28;20060;-62
2023/08/20 05:23:57;;;;;;;18.17;5.53;;;16.60;99.90;;;;;;5029106;28;20455;-62
2023/08/20 05:26:24;;;;;;;16.38;5.95;;;16.70;99.90;;;;;;5029409;28;20219;-62
2023/08/20 05:28:51;;;;;;;17.67;5.80;;;16.60;99.90;;;;;;5028996;28;20670;-63
2023/08/20 05:31:18;;;;;;;16.20;4.97;;;16.70;99.90;;;;;;5029129;28;20053;-61
2023/08/20 05:33:44;;;;;;;14.88;5.78;;;16.70;99.90;;;;;;5028649;28;20045;-62
2023/08/20 05:36:11;;;;;;;17.35;4.30;;;16.70;99.90;;;;;;5028697;28;20508;-61
2023/08/20 05:38:38;;;;;;;22.73;5.47;;;16.70;99.90;;;;;;5024629;28;20084;-62
2023/08/20 05:41:05;;;;;;;21.77;4.65;;;16.70;99.90;;;;;;5028741;28;20085;-64
2023/08/20 05:43:32;;;;;;;17.90;4.30;;;16.70;99.90;;;;;;5029009;28;20053;-62
2023/08/20 05:45:59;;;;;;;13.25;3.65;;;16.80;99.90;;;;;;5028811;28;20083;-63
2023/08/20 05:48:25;;;;;;;13.02;3.90;;;16.80;99.90;;;;;;5028756;28;20044;-62
2023/08/20 05:50:52;;;;;;;22.63;4.40;;;16.90;99.90;;;;;;5028561;28;20049;-61
2023/08/20 05:53:19;;;;;;;16.35;4.22;;;16.90;99.90;;;;;;5028389;28;20057;-62
2023/08/20 05:55:46;;;;;;;17.73;4.55;;;17.00;99.90;;;;;;5029046;28;20480;-61
2023/08/20 05:58:12;;;;;;;15.60;4.38;;;17.00;99.90;;;;;;5028311;28;20068;-61
2023/08/20 06:00:39;;;;;;;22.98;4.30;;;17.10;99.90;;;;;;5017825;28;20055;-62
2023/08/20 06:03:09;;;;;;;11.02;3.45;;;17.10;99.90;;;;;;5026886;28;21148;-61
2023/08/20 06:05:36;;;;;;;16.70;3.78;;;17.20;99.90;;;;;;5027007;28;20053;-62
2023/08/20 06:08:03;;;;;;;15.55;4.20;;;17.30;99.90;;;;;;5027991;28;20068;-60
2023/08/20 06:10:30;;;;;;;15.75;3.20;;;17.30;99.90;;;;;;5028584;28;20049;-62
2023/08/20 06:12:57;;;;;;;13.90;3.05;;;17.30;99.90;;;;;;5028004;28;20041;-62
2023/08/20 06:15:23;;;;;;;14.80;3.88;;;17.40;99.90;;;;;;5028247;28;20049;-62
2023/08/20 06:17:50;;;;;;;13.05;2.67;;;17.40;99.90;;;;;;5028074;28;20045;-63
2023/08/20 06:20:18;;;;;;;19.90;4.03;;;17.40;99.90;;;;;;5027927;28;20203;-62
2023/08/20 06:22:45;;;;;;;19.73;4.10;;;17.40;99.90;;;;;;5028330;28;20049;-61
2023/08/20 06:25:12;;;;;;;15.10;4.07;;;17.40;99.90;;;;;;5028147;28;20045;-61
2023/08/20 06:27:39;;;;;;;13.93;2.80;;;17.40;99.90;;;;;;5027871;28;20048;-61
2023/08/20 06:30:06;;;;;;;23.00;4.88;;;17.50;99.90;;;;;;5027697;28;20103;-62
2023/08/20 06:32:34;;;;;;;21.48;3.17;;;17.50;99.90;;;;;;5027994;28;20048;-62
2023/08/20 06:35:00;;;;;;;18.92;3.90;;;17.60;99.90;;;;;;5027714;28;20049;-62
2023/08/20 06:37:27;;;;;;;9.60;3.17;;;17.60;99.90;;;;;;5025345;28;20116;-62
2023/08/20 06:39:54;;;;;;;15.95;3.45;;;17.60;99.90;;;;;;5027698;28;20053;-62
2023/08/20 06:42:21;;;;;;;18.05;3.80;;;17.60;99.90;;;;;;5018517;28;20432;-62
2023/08/20 06:44:47;;;;;;;21.98;3.55;;;17.70;99.90;;;;;;5027204;28;20483;-63
2023/08/20 06:47:15;;;;;;;19.90;3.45;;;17.70;99.90;;;;;;5027903;28;20084;-62
2023/08/20 06:49:41;;;;;;;15.50;3.70;;;17.90;99.90;;;;;;5027321;28;20753;-62
2023/08/20 06:52:09;;;;;;;20.27;4.82;;;17.90;99.90;;;;;;5028023;28;20061;-62
2023/08/20 06:54:36;;;;;;;11.48;3.85;;;17.90;99.90;;;;;;5027549;28;20397;-61
2023/08/20 06:57:03;;;;;;;14.45;3.83;;;18.00;99.90;;;;;;5027429;28;20404;-62
2023/08/20 06:59:29;;;;;;;12.98;3.75;;;18.00;99.90;;;;;;5028597;28;20053;-62
2023/08/20 07:01:56;;;;;;;11.95;3.08;;;18.00;99.90;;;;;;5031389;28;20432;-61
2023/08/20 07:04:23;;;;;;;25.17;4.68;;;18.10;99.90;;;;;;5031242;28;20118;-62
2023/08/20 07:06:51;;;;;;;11.82;3.63;;;18.10;99.90;;;;;;5031451;28;20065;-63
2023/08/20 07:09:18;;;;;;;14.18;3.22;;;18.20;99.90;;;;;;5030976;28;20065;-62
2023/08/20 07:11:44;;;;;;;11.65;2.90;;;18.30;99.90;;;;;;5031393;28;20045;-63
2023/08/20 07:14:14;;;;;;;15.60;4.10;;;18.30;99.90;;;;;;5014014;28;20053;-62
2023/08/20 07:16:41;;;;;;;14.10;2.95;;;18.40;99.90;;;;;;5031239;28;20049;-62
2023/08/20 07:19:08;;;;;;;10.38;2.75;;;18.40;99.90;;;;;;5031090;28;20056;-62
2023/08/20 07:21:35;;;;;;;7.65;1.73;;;18.50;99.90;;;;;;5031067;28;20042;-63
2023/08/20 07:24:02;;;;;;;14.68;2.78;;;18.50;99.90;;;;;;5031379;28;20103;-63
2023/08/20 07:26:29;;;;;;;11.38;2.33;;;18.50;99.90;;;;;;5027688;28;20079;-62
2023/08/20 07:28:56;;;;;;;12.30;2.63;;;18.60;99.90;;;;;;4996707;28;20622;-63
2023/08/20 07:31:23;;;;;;;12.25;2.55;;;18.60;99.90;;;;;;5030943;28;20049;-63
2023/08/20 07:33:51;;;;;;;13.45;2.33;;;18.70;99.90;;;;;;5030928;28;20056;-62
2023/08/20 07:36:21;;;;;;;7.85;1.70;;;18.70;99.90;;;;;;5013018;28;20049;-63
2023/08/20 07:38:48;;;;;;;11.15;2.15;;;18.80;99.90;;;;;;5028684;28;20046;-63
2023/08/20 07:41:15;;;;;;;12.48;2.97;;;18.90;99.90;;;;;;5030450;28;20053;-62
2023/08/20 07:43:42;;;;;;;11.25;2.05;;;18.90;99.90;;;;;;5031069;28;20095;-63
2023/08/20 07:46:09;;;;;;;10.73;2.25;;;19.00;99.90;;;;;;5016963;28;20060;-62
2023/08/20 07:48:36;;;;;;;13.73;2.55;;;19.10;99.90;;;;;;5020344;28;20045;-63
2023/08/20 07:51:03;;;;;;;10.10;1.88;;;19.20;99.90;;;;;;5028844;28;20103;-64
2023/08/20 07:53:30;;;;;;;8.63;2.45;;;19.20;99.90;;;;;;5022243;28;20049;-63
2023/08/20 07:55:57;;;;;;;9.18;2.00;;;19.30;99.90;;;;;;5027854;28;20053;-63
2023/08/20 07:58:24;;;;;;;20.95;3.40;;;19.30;99.90;;;;;;5030393;28;20045;-62
2023/08/20 08:00:51;;;;;;;11.52;2.65;;;19.30;99.90;;;;;;5030461;28;20049;-63
2023/08/20 08:03:18;;;;;;;17.13;2.47;;;19.30;99.90;;;;;;5030937;28;20088;-63
2023/08/20 08:05:48;;;;;;;11.20;2.58;;;19.30;99.90;;;;;;5028473;28;20085;-63
2023/08/20 08:08:16;;;;;;;12.00;2.67;;;19.20;99.90;;;;;;5028075;28;20068;-63
2023/08/20 08:10:46;;;;;;;9.30;2.05;;;19.20;99.90;;;;;;5028854;28;20504;-63
2023/08/20 08:13:14;;;;;;;9.05;2.40;;;19.20;99.90;;;;;;5030463;28;20416;-64
2023/08/20 08:15:41;;;;;;;14.63;2.42;;;19.20;99.90;;;;;;5030205;28;20382;-62
2023/08/20 08:18:07;;;;;;;11.63;2.03;;;19.30;99.90;;;;;;5026557;28;20042;-64
2023/08/20 08:20:34;;;;;;;9.52;2.15;;;19.40;99.90;;;;;;5024500;28;20136;-62
2023/08/20 08:23:01;;;;;;;12.60;2.60;;;19.40;99.90;;;;;;5030111;28;20049;-62
2023/08/20 08:25:28;;;;;;;8.45;3.00;;;19.60;99.90;;;;;;5030590;28;20116;-63
2023/08/20 08:27:55;;;;;;;8.40;1.98;;;19.70;99.90;;;;;;5029745;28;20056;-63
2023/08/20 08:30:27;;;;;;;14.50;3.42;;;19.80;99.90;;;;;;5030444;28;20412;-63
2023/08/20 08:32:53;;;;;;;11.90;2.55;;;20.00;99.90;;;;;;5029904;28;20049;-62
2023/08/20 08:35:20;;;;;;;11.68;2.40;;;20.10;99.90;;;;;;5029880;28;20104;-63
2023/08/20 08:37:47;;;;;;;13.98;2.22;;;20.20;99.90;;;;;;5010737;28;20048;-64
2023/08/20 08:40:14;;;;;;;12.70;2.20;;;20.40;99.90;;;;;;5029712;28;20049;-63
2023/08/20 08:42:42;;;;;;;13.35;1.90;;;20.40;99.90;;;;;;5029817;28;20049;-63
2023/08/20 08:45:10;;;;;;;13.77;2.47;;;20.40;99.90;;;;;;5030015;28;20179;-63
2023/08/20 08:47:39;;;;;;;7.32;2.15;;;20.40;99.90;;;;;;5029508;28;20049;-62
2023/08/20 08:50:06;;;;;;;7.82;1.88;;;20.20;99.90;;;;;;5011802;28;20469;-63
2023/08/20 08:52:33;;;;;;;10.68;2.35;;;20.20;99.90;;;;;;5011968;28;20447;-63
2023/08/20 08:55:00;;;;;;;13.45;2.13;;;20.20;99.90;;;;;;5012093;28;20404;-63
2023/08/20 08:57:27;;;;;;;10.60;1.83;;;20.10;99.90;;;;;;4995237;28;20046;-63
2023/08/20 08:59:53;;;;;;;13.32;2.47;;;20.10;99.90;;;;;;5026949;28;20492;-62
2023/08/20 09:02:22;;;;;;;24.48;4.22;;;20.00;99.90;;;;;;5028969;28;20058;-62
2023/08/20 09:04:48;;;;;;;10.15;1.65;;;20.00;99.90;;;;;;5029433;28;20055;-61
2023/08/20 09:07:15;;;;;;;10.15;2.13;;;20.10;99.90;;;;;;5020904;28;20111;-62
2023/08/20 09:09:43;;;;;;;8.85;1.83;;;20.20;99.90;;;;;;5029136;28;20072;-62
2023/08/20 09:12:14;;;;;;;9.93;1.63;;;20.40;99.90;;;;;;5018019;28;20045;-62
2023/08/20 09:14:47;;;;;;;7.20;1.50;;;20.50;99.90;;;;;;5028839;28;20042;-62
2023/08/20 09:17:14;;;;;;;6.88;1.58;;;20.60;99.90;;;;;;5018912;28;20075;-63
2023/08/20 09:19:42;;;;;;;5.30;1.70;;;20.70;99.90;;;;;;5028742;28;20057;-63
2023/08/20 09:22:13;;;;;;;12.93;2.92;;;20.80;99.90;;;;;;5028739;28;20115;-63
2023/08/20 09:24:43;;;;;;;10.57;2.13;;;20.90;99.90;;;;;;5015542;28;20053;-63
2023/08/20 09:27:11;;;;;;;8.52;2.03;;;21.00;99.90;;;;;;5026072;28;20709;-62
2023/08/20 09:29:54;;;;;;;11.23;2.30;;;21.00;99.90;;;;;;5029122;28;20103;-63
2023/08/20 09:32:25;;;;;;;7.30;1.55;;;21.20;99.90;;;;;;5026482;28;20049;-62
2023/08/20 09:34:53;;;;;;;10.02;2.25;;;21.20;99.90;;;;;;5010856;28;20534;-63
2023/08/20 09:37:24;;;;;;;15.60;2.03;;;21.30;99.90;;;;;;5029019;28;20049;-63
2023/08/20 09:39:51;;;;;;;8.30;1.77;;;21.40;99.90;;;;;;5028502;28;20531;-64
2023/08/20 09:42:17;;;;;;;10.02;1.70;;;21.50;99.90;;;;;;5011287;28;20049;-62
2023/08/20 09:44:45;;;;;;;8.00;2.10;;;21.60;99.90;;;;;;5011604;28;20546;-65
2023/08/20 09:47:16;;;;;;;7.22;1.73;;;21.90;99.90;;;;;;5029000;28;20610;-63
2023/08/20 09:49:46;;;;;;;10.90;2.53;;;22.30;99.90;;;;;;5026014;28;20068;-62
2023/08/20 09:52:25;;;;;;;7.75;1.45;;;22.50;99.90;;;;;;5024267;28;20068;-62
2023/08/20 09:55:11;;;;;;;10.43;2.22;;;22.70;99.90;;;;;;5000986;28;20041;-63
2023/08/20 09:57:39;;;;;;;3.58;1.50;;;22.90;99.90;;;;;;5009682;28;20111;-63
2023/08/20 10:00:10;;;;;;;9.05;1.73;;;23.10;99.90;;;;;;5028298;28;20065;-63
2023/08/20 10:02:37;;;;;;;7.88;1.80;;;23.30;99.90;;;;;;5028313;28;20069;-63
2023/08/20 10:05:10;;;;;;;8.68;1.92;;;23.60;99.90;;;;;;5027747;28;20049;-64
2023/08/20 10:07:38;;;;;;;9.25;2.13;;;24.00;99.90;;;;;;5017826;28;20475;-64
2023/08/20 10:10:06;;;;;;;8.18;2.00;;;24.00;99.90;;;;;;5028197;28;20072;-64
2023/08/20 10:12:33;;;;;;;12.48;3.33;;;23.90;99.90;;;;;;5028154;28;20049;-63
2023/08/20 10:15:00;;;;;;;10.27;1.52;;;24.00;99.90;;;;;;5009753;28;20045;-65
2023/08/20 10:17:30;;;;;;;5.85;1.38;;;24.20;99.90;;;;;;5028617;28;20091;-65
2023/08/20 10:19:58;;;;;;;9.40;2.08;;;24.40;99.90;;;;;;5025330;28;20542;-65
2023/08/20 10:22:40;;;;;;;5.70;1.83;;;24.60;99.90;;;;;;5028014;28;20064;-65
2023/08/20 10:25:07;;;;;;;10.65;2.42;;;24.80;99.90;;;;;;5028135;28;20053;-65
2023/08/20 10:27:36;;;;;;;6.70;1.55;;;24.80;99.90;;;;;;5010114;28;20138;-64
2023/08/20 10:30:11;;;;;;;7.05;1.98;;;24.80;99.90;;;;;;5010310;28;20049;-64
2023/08/20 10:32:53;;;;;;;6.97;1.77;;;24.50;99.90;;;;;;5027629;28;20079;-63
2023/08/20 10:35:23;;;;;;;8.25;1.65;;;24.20;99.90;;;;;;5026813;28;20087;-64
2023/08/20 10:38:07;;;;;;;8.93;2.40;;;24.00;99.90;;;;;;5027753;28;20041;-63
2023/08/20 10:40:53;;;;;;;5.90;1.38;;;23.90;99.90;;;;;;5008879;28;20045;-63
2023/08/20 10:43:28;;;;;;;8.27;1.52;;;23.70;99.90;;;;;;5027131;28;20053;-63
2023/08/20 10:46:17;;;;;;;6.38;1.35;;;23.80;99.90;;;;;;5027821;28;20041;-65
2023/08/20 10:48:48;;;;;;;5.25;1.50;;;23.90;99.90;;;;;;5020466;28;20124;-63
2023/08/20 10:51:18;;;;;;;7.88;1.60;;;24.00;99.90;;;;;;5027581;28;20049;-63
2023/08/20 10:54:00;;;;;;;7.72;1.45;;;24.10;99.90;;;;;;5027784;28;20041;-64
2023/08/20 10:56:53;;;;;;;15.88;2.05;;;24.20;99.90;;;;;;5027941;28;20069;-64
2023/08/20 10:59:22;;;;;;;6.53;2.22;;;24.20;99.90;;;;;;5019536;28;20128;-63
2023/08/20 11:01:55;;;;;;;10.20;1.92;;;24.30;99.90;;;;;;5027345;28;20042;-63
2023/08/20 11:04:26;;;;;;;6.70;1.75;;;24.20;99.90;;;;;;5026960;28;20463;-64
2023/08/20 11:06:54;;;;;;;4.15;0.90;;;24.00;99.90;;;;;;5026204;28;20049;-63
2023/08/20 11:09:26;;;;;;;7.88;1.95;;;24.00;99.90;;;;;;5019641;28;20049;-62
2023/08/20 11:11:54;;;;;;;5.70;1.13;;;23.90;99.90;;;;;;5021830;28;20049;-64
2023/08/20 11:14:21;;;;;;;8.07;2.22;;;23.90;99.90;;;;;;5027479;28;20053;-63
2023/08/20 11:16:51;;;;;;;7.60;1.45;;;23.90;99.90;;;;;;5010972;28;20072;-63
2023/08/20 11:19:22;;;;;;;5.53;1.33;;;23.90;99.90;;;;;;5027095;28;20408;-63
2023/08/20 11:21:48;;;;;;;7.85;1.50;;;23.80;99.90;;;;;;5009911;28;20049;-63
2023/08/20 11:24:16;;;;;;;5.30;1.45;;;23.80;99.90;;;;;;5009527;28;20562;-63
2023/08/20 11:26:43;;;;;;;6.70;1.90;;;23.80;99.90;;;;;;5027463;28;20128;-63
2023/08/20 11:29:13;;;;;;;5.57;2.22;;;23.60;99.90;;;;;;5009590;28;20080;-64
2023/08/20 11:31:41;;;;;;;4.22;1.00;;;23.50;99.90;;;;;;5027462;28;20046;-63
2023/08/20 11:34:07;;;;;;;6.25;1.25;;;23.70;99.90;;;;;;5009655;28;20111;-64
2023/08/20 11:36:35;;;;;;;3.85;1.23;;;23.90;99.90;;;;;;5027301;28;20132;-63
2023/08/20 11:39:02;;;;;;;4.22;1.08;;;24.00;99.90;;;;;;5026072;28;20052;-62
2023/08/20 11:41:28;;;;;;;2.88;0.85;;;24.20;99.90;;;;;;5028381;28;20119;-63
2023/08/20 11:43:55;;;;;;;10.60;1.58;;;24.20;99.90;;;;;;5027462;28;20049;-64
2023/08/20 11:46:23;;;;;;;3.97;1.00;;;24.30;99.90;;;;;;5029740;28;20049;-64
2023/08/20 11:49:03;;;;;;;4.18;0.93;;;24.20;99.90;;;;;;5027976;28;20235;-64
2023/08/20 11:51:37;;;;;;;5.53;0.93;;;24.30;99.90;;;;;;5029024;28;20107;-64
2023/08/20 11:54:11;;;;;;;2.58;0.95;;;24.40;99.90;;;;;;5030454;28;20087;-64
2023/08/20 11:56:47;;;;;;;3.15;1.10;;;24.40;99.90;;;;;;5030606;28;20049;-63
2023/08/20 11:59:14;;;;;;;4.63;1.00;;;24.40;99.90;;;;;;5030180;28;20519;-63
2023/08/20 12:01:41;;;;;;;1.92;0.75;;;24.50;99.90;;;;;;5030086;28;20524;-64
2023/08/20 12:04:08;;;;;;;4.38;0.70;;;24.60;99.90;;;;;;5029923;28;20053;-63
2023/08/20 12:06:36;;;;;;;3.28;0.90;;;24.70;99.90;;;;;;5012711;28;20059;-63
2023/08/20 12:09:23;;;;;;;4.28;1.38;;;24.70;99.90;;;;;;5030109;28;20061;-64
2023/08/20 12:11:51;;;;;;;4.70;0.80;;;24.70;99.90;;;;;;5029263;28;20060;-63
2023/08/20 12:14:18;;;;;;;5.07;1.27;;;24.80;99.90;;;;;;5030141;28;20123;-63
2023/08/20 12:16:45;;;;;;;3.08;1.30;;;24.90;99.90;;;;;;5030041;28;20099;-64
2023/08/20 12:19:13;;;;;;;4.13;1.60;;;24.90;99.90;;;;;;5029885;28;20045;-63
2023/08/20 12:21:41;;;;;;;4.47;1.27;;;25.00;99.90;;;;;;5012448;28;20049;-64
2023/08/20 12:24:09;;;;;;;6.18;1.13;;;25.00;99.90;;;;;;5030179;28;20095;-63
2023/08/20 12:26:36;;;;;;;3.28;1.10;;;25.00;99.90;;;;;;5029729;28;20492;-62
2023/08/20 12:29:03;;;;;;;3.72;1.10;;;25.10;99.90;;;;;;5030220;28;20070;-63
2023/08/20 12:31:31;;;;;;;3.15;1.17;;;25.00;99.90;;;;;;5030063;28;20087;-63
2023/08/20 12:33:59;;;;;;;3.33;1.27;;;24.90;99.90;;;;;;5029984;28;20072;-64
2023/08/20 12:36:25;;;;;;;6.93;1.63;;;24.70;99.90;;;;;;5029613;28;20041;-62
2023/08/20 12:38:52;;;;;;;3.13;1.15;;;24.70;99.90;;;;;;5029866;28;20037;-63
2023/08/20 12:41:19;;;;;;;3.22;1.02;;;24.80;99.90;;;;;;5029524;28;20046;-62
2023/08/20 12:43:46;;;;;;;3.60;0.85;;;24.80;99.90;;;;;;5012636;28;20046;-63
2023/08/20 12:46:13;;;;;;;7.60;1.25;;;24.60;99.90;;;;;;5029704;28;20172;-63